Neillsville, Wisconsin
Current Conditions -  °F | °C
As of 10:54 PM on Tuesday 21 Oct 2014 (Local Time) from KMFI Reporting Station
Clear Clear  
Wind Chill: 39°   Ceiling: Unl
Heat Index: 39°   Visibility: 10mi
Dew Point: 34°   Wind: 3mph
Humidity: 82%   Direction: 170°S
Pressure: 30.27"   Gusts: NA
Location:  44.56°N, 90.6°W
Report Text: KMFI 220354Z AUTO 17003KT 10SM CLR 04/01 A3027 RMK AO2 SLP260 T00390011
Loading
Personal Weather Stations






























Interactive Weather Map New forecast layout! Learn more

10-Day Weather Forecast

Advertisements
Track Severe Weather on mobile